createdAt,value
2019-01-25T17:03:11.709Z,23.80
2019-01-25T17:06:14.427Z,22.00
2019-01-25T17:09:17.107Z,21.40
2019-01-25T17:12:19.645Z,21.20
2019-01-25T17:15:22.608Z,21.00
2019-01-25T17:18:25.263Z,21.00
2019-01-25T17:21:27.942Z,21.00
2019-01-25T17:24:30.586Z,21.00
2019-01-25T17:32:24.453Z,21.50
2019-01-25T17:35:27.265Z,15.50
2019-01-25T17:38:30.014Z,9.30
2019-01-25T17:41:32.693Z,4.90
2019-01-25T17:44:41.323Z,2.20
2019-01-25T17:47:39.906Z,0.50
2019-01-25T17:50:42.590Z,-0.50
2019-01-25T17:53:45.183Z,-1.20
2019-01-25T17:56:47.806Z,-1.60
2019-01-25T17:59:50.567Z,-1.90
2019-01-25T18:02:53.094Z,-2.10
2019-01-25T18:05:55.687Z,-2.20
2019-01-25T18:08:58.340Z,-2.30
2019-01-25T18:12:01.010Z,-2.40
2019-01-25T18:15:05.237Z,-2.50
2019-01-25T18:18:08.201Z,-2.60
2019-01-25T18:21:11.938Z,-2.70
2019-01-25T18:24:14.546Z,-2.80
2019-01-25T18:27:17.196Z,-2.80
2019-01-25T18:30:30.336Z,-2.80
2019-01-25T18:33:33.014Z,-2.80
2019-01-25T18:36:35.737Z,-2.80
2019-01-25T18:39:38.530Z,-2.90
2019-01-25T18:42:41.264Z,-2.90
2019-01-25T18:45:43.977Z,-3.00
2019-01-25T18:48:46.487Z,-3.00
2019-01-25T18:51:49.112Z,-3.10
2019-01-25T18:54:51.747Z,-3.30
2019-01-25T18:57:54.324Z,-3.30
2019-01-25T19:00:56.985Z,-3.30
2019-01-25T19:03:59.534Z,-3.40
2019-01-25T19:07:03.174Z,-3.40
2019-01-25T19:10:09.892Z,-3.40
2019-01-25T19:13:12.486Z,-3.40
2019-01-25T19:16:15.176Z,-3.30
2019-01-25T19:19:17.986Z,-3.30
2019-01-25T19:22:20.642Z,-3.30
2019-01-25T19:25:23.498Z,-3.30
2019-01-25T19:28:26.510Z,-3.30
2019-01-25T19:31:30.622Z,-3.30
2019-01-25T19:34:33.452Z,-3.30
2019-01-25T19:37:36.321Z,-3.30
2019-01-25T19:40:38.931Z,-3.30
2019-01-25T19:43:41.490Z,-3.20
2019-01-25T19:46:44.346Z,-3.20
2019-01-25T19:49:46.872Z,-3.10
2019-01-25T19:52:49.678Z,-3.10
2019-01-25T19:55:52.328Z,-3.10
2019-01-25T19:58:55.038Z,-3.20
2019-01-25T20:01:57.658Z,-3.20
2019-01-25T20:05:00.372Z,-3.10
2019-01-25T20:08:04.136Z,-3.20
2019-01-25T20:11:06.762Z,-3.10
2019-01-25T20:14:09.307Z,-3.10
2019-01-25T20:17:11.900Z,-3.10
2019-01-25T20:20:17.734Z,-3.10
2019-01-25T20:23:21.464Z,-3.10
2019-01-25T20:26:24.016Z,-3.10
2019-01-25T20:29:26.655Z,-3.10
2019-01-25T20:32:29.173Z,-3.10
2019-01-25T20:35:34.134Z,-3.10
2019-01-25T20:38:36.798Z,-3.10
2019-01-25T20:41:39.475Z,-3.10
2019-01-25T20:44:42.093Z,-3.10
2019-01-25T20:47:44.804Z,-3.10
2019-01-25T20:50:47.472Z,-3.10
2019-01-25T20:53:50.110Z,-3.10
2019-01-25T20:56:52.753Z,-3.10
2019-01-25T20:59:56.630Z,-3.10
2019-01-25T21:02:59.383Z,-3.20
2019-01-25T21:06:04.494Z,-3.10
2019-01-25T21:09:09.329Z,-3.10
2019-01-25T21:12:12.139Z,-3.20
2019-01-25T21:15:16.431Z,-3.20
2019-01-25T21:18:19.122Z,-3.20
2019-01-25T21:21:21.809Z,-3.20
2019-01-25T21:24:24.490Z,-3.20
2019-01-25T21:27:27.033Z,-3.20
2019-01-25T21:30:30.797Z,-3.20
2019-01-25T21:33:33.456Z,-3.20
2019-01-25T21:36:36.022Z,-3.20
2019-01-25T21:39:38.529Z,-3.20
2019-01-25T21:42:41.297Z,-3.20
2019-01-25T21:45:43.963Z,-3.20
2019-01-25T21:48:46.645Z,-3.20
2019-01-25T21:51:49.297Z,-3.20
2019-01-25T21:54:52.076Z,-3.20
2019-01-25T21:57:54.692Z,-3.20
2019-01-25T22:00:57.344Z,-3.20
2019-01-25T22:03:59.972Z,-3.20
2019-01-25T22:07:02.904Z,-3.20
2019-01-25T22:10:09.682Z,-3.20
2019-01-25T22:13:12.210Z,-3.20
2019-01-25T22:16:14.917Z,-3.20
2019-01-25T22:19:17.652Z,-3.20
2019-01-25T22:22:21.331Z,-3.30
2019-01-25T22:25:24.031Z,-3.30
2019-01-25T22:28:26.683Z,-3.30
2019-01-25T22:31:29.374Z,-3.30
2019-01-25T22:34:31.935Z,-3.30
2019-01-25T22:37:34.656Z,-3.30
2019-01-25T22:40:37.306Z,-3.30
2019-01-25T22:43:39.940Z,-3.20
2019-01-25T22:46:42.531Z,-3.30
2019-01-25T22:49:45.205Z,-3.30
2019-01-25T22:52:47.792Z,-3.20
2019-01-25T22:55:51.315Z,-3.20
2019-01-25T22:58:54.069Z,-3.20
2019-01-25T23:01:56.686Z,-3.20
2019-01-25T23:05:21.518Z,-3.20
2019-01-25T23:08:24.162Z,-3.20
2019-01-25T23:11:26.736Z,-3.20
2019-01-25T23:14:29.310Z,-3.20
2019-01-25T23:17:32.004Z,-3.20
2019-01-25T23:20:34.670Z,-3.30
2019-01-25T23:23:37.248Z,-3.20
2019-01-25T23:26:39.840Z,-3.20
2019-01-25T23:29:43.704Z,-3.30
2019-01-25T23:32:46.333Z,-3.30
2019-01-25T23:35:48.928Z,-3.30
2019-01-25T23:38:51.502Z,-3.30
2019-01-25T23:41:54.231Z,-3.30
2019-01-25T23:44:56.868Z,-3.20
2019-01-25T23:47:59.452Z,-3.20
2019-01-25T23:51:02.024Z,-3.20
2019-01-25T23:54:05.532Z,-3.20
2019-01-25T23:57:08.213Z,-3.20
